Time;durP1;ratioP1;P1;durP2;ratioP2;P2;SDS_P1;SDS_P2;PMS_P1;PMS_P2;Temp;Humidity;BMP_temperature;BMP_pressure;BME280_temperature;BME280_humidity;BME280_pressure;Samples;Min_cycle;Max_cycle;Signal;HPM_P1;HPM_P2
2023/10/13 00:02:14;;;;;;;14.00;9.20;;;;;;;14.97;89.48;99261.69;107758;1251;74282;-37
2023/10/13 00:04:42;;;;;;;15.70;9.30;;;;;;;14.92;89.70;99263.02;107741;1251;67868;-37
2023/10/13 00:07:09;;;;;;;14.00;8.80;;;;;;;14.89;89.93;99260.31;107792;1254;72417;-37
2023/10/13 00:09:37;;;;;;;15.30;8.70;;;;;;;14.92;89.74;99256.86;107767;1256;61824;-37
2023/10/13 00:12:14;;;;;;;12.10;7.50;;;;;;;14.95;89.66;99251.48;107703;1251;60386;-37
2023/10/13 00:14:41;;;;;;;13.50;8.20;;;;;;;14.97;89.56;99249.53;107747;1251;74432;-37
2023/10/13 00:17:15;;;;;;;13.50;8.80;;;;;;;14.96;89.52;99245.55;107705;1256;68108;-37
2023/10/13 00:19:46;;;;;;;11.80;7.40;;;;;;;14.94;89.60;99236.27;107734;1251;72144;-37
2023/10/13 00:22:15;;;;;;;11.70;7.10;;;;;;;15.01;89.28;99238.60;107694;1251;62019;-37
2023/10/13 00:24:45;;;;;;;14.80;7.60;;;;;;;15.06;88.83;99242.89;107724;1251;60376;-37
2023/10/13 00:27:24;;;;;;;12.70;8.20;;;;;;;15.07;88.70;99245.63;107714;1251;73592;-38
2023/10/13 00:30:04;;;;;;;13.90;8.30;;;;;;;15.04;88.61;99246.33;107747;1257;68405;-38
2023/10/13 00:32:31;;;;;;;11.00;7.60;;;;;;;15.00;88.74;99246.73;107727;1251;72955;-37
2023/10/13 00:35:03;;;;;;;12.80;7.20;;;;;;;15.02;88.51;99249.45;107751;1251;60423;-37
2023/10/13 00:37:41;;;;;;;12.60;7.30;;;;;;;15.05;88.42;99252.88;107700;1251;60042;-38
2023/10/13 00:40:17;;;;;;;12.30;8.10;;;;;;;15.03;88.37;99253.51;107706;1251;73622;-37
2023/10/13 00:42:50;;;;;;;15.10;7.50;;;;;;;14.96;88.71;99261.93;107766;1254;66409;-38
2023/10/13 00:45:17;;;;;;;10.90;6.80;;;;;;;14.90;88.97;99262.33;107708;1251;71630;-37
2023/10/13 00:47:56;;;;;;;13.70;6.90;;;;;;;14.91;88.99;99265.20;107697;1251;60713;-37
2023/10/13 00:50:23;;;;;;;11.30;6.90;;;;;;;14.91;89.06;99260.77;107755;1251;60419;-37
2023/10/13 00:52:50;;;;;;;16.00;8.00;;;;;;;14.86;89.26;99262.17;107709;1251;74242;-38
2023/10/13 00:55:18;;;;;;;12.40;6.80;;;;;;;14.80;89.45;99263.42;107709;1251;67895;-38
2023/10/13 00:57:47;;;;;;;10.40;6.80;;;;;;;14.80;89.51;99265.23;107762;1257;71161;-38
2023/10/13 01:00:24;;;;;;;13.20;7.10;;;;;;;14.81;89.46;99263.73;107662;1251;61973;-37
2023/10/13 01:02:56;;;;;;;15.30;7.20;;;;;;;14.82;89.65;99267.61;107719;1252;60897;-38
2023/10/13 01:05:23;;;;;;;12.00;7.30;;;;;;;14.79;89.57;99265.14;107767;1251;73722;-38
2023/10/13 01:07:54;;;;;;;13.20;7.40;;;;;;;14.75;89.78;99268.58;107753;1251;68016;-38
2023/10/13 01:10:25;;;;;;;10.80;7.40;;;;;;;14.77;89.65;99268.80;107692;1256;73256;-37
2023/10/13 01:12:52;;;;;;;13.10;6.70;;;;;;;14.80;89.44;99270.29;107673;1251;61903;-38
2023/10/13 01:15:21;;;;;;;18.90;7.70;;;;;;;14.80;89.43;99275.42;107727;1256;60501;-38
2023/10/13 01:17:48;;;;;;;13.20;8.00;;;;;;;14.77;89.68;99279.23;107716;1251;74354;-38
2023/10/13 01:20:27;;;;;;;9.90;6.90;;;;;;;14.73;89.71;99280.95;107734;1251;68072;-37
2023/10/13 01:22:56;;;;;;;13.60;7.60;;;;;;;14.75;89.48;99287.36;107762;1251;73250;-38
2023/10/13 01:25:28;;;;;;;12.00;7.10;;;;;;;14.78;89.22;99290.77;107708;1253;61880;-38
2023/10/13 01:27:57;;;;;;;11.50;7.00;;;;;;;14.78;89.17;99295.62;107727;1257;60443;-38
2023/10/13 01:30:26;;;;;;;12.00;7.40;;;;;;;14.74;89.28;99299.59;107707;1251;74417;-38
2023/10/13 01:32:53;;;;;;;15.80;7.60;;;;;;;14.69;89.46;99300.99;107715;1251;68590;-38
2023/10/13 01:35:35;;;;;;;13.00;7.50;;;;;;;14.67;89.31;99303.16;107660;1256;72365;-38
2023/10/13 01:38:02;;;;;;;15.30;8.10;;;;;;;14.68;89.42;99303.71;107694;1255;61825;-38
2023/10/13 01:40:33;;;;;;;10.90;7.30;;;;;;;14.69;89.55;99305.13;107752;1251;60417;-38
2023/10/13 01:43:00;;;;;;;15.40;8.90;;;;;;;14.67;89.75;99308.46;107727;1255;73785;-37
2023/10/13 01:45:30;;;;;;;14.90;8.10;;;;;;;14.65;89.82;99308.48;107552;1257;181065;-38
2023/10/13 01:49:21;;;;;;;11.40;8.50;;;;;;;14.70;89.61;99320.48;104126;1291;600517;-37
2023/10/13 01:51:49;;;;;;;15.00;9.10;;;;;;;14.64;89.71;99322.66;106649;1266;60046;-37
2023/10/13 01:54:17;;;;;;;11.70;7.70;;;;;;;14.61;90.03;99325.31;106640;1266;60011;-37
2023/10/13 01:56:45;;;;;;;13.60;7.60;;;;;;;14.62;90.06;99330.29;106612;1271;69981;-37
2023/10/13 01:59:13;;;;;;;12.90;8.50;;;;;;;14.62;90.08;99330.68;106533;1266;68004;-37
2023/10/13 02:01:41;;;;;;;13.80;9.00;;;;;;;14.58;90.47;99336.20;106552;1266;72730;-37
2023/10/13 02:04:10;;;;;;;11.00;8.20;;;;;;;14.53;90.77;99338.23;106581;1263;182238;-37
2023/10/13 02:06:38;;;;;;;12.20;8.10;;;;;;;14.54;90.88;99336.20;106777;1264;59716;-37
2023/10/13 02:09:13;;;;;;;11.20;7.90;;;;;;;14.56;90.87;99334.80;106715;1264;71974;-37
2023/10/13 02:11:45;;;;;;;15.30;8.90;;;;;;;14.58;91.05;99340.24;106971;1261;66622;-37
2023/10/13 02:14:16;;;;;;;14.20;9.10;;;;;;;14.57;91.49;99342.36;106968;1261;72689;-37
2023/10/13 02:16:46;;;;;;;12.80;8.30;;;;;;;14.56;91.69;99345.79;106929;1261;60695;-37
2023/10/13 02:19:16;;;;;;;11.40;8.00;;;;;;;14.60;91.52;99347.20;107005;1261;59519;-37
2023/10/13 02:21:44;;;;;;;15.70;8.90;;;;;;;14.64;91.49;99347.98;106780;1260;73125;-37
2023/10/13 02:24:29;;;;;;;13.70;8.60;;;;;;;14.65;91.66;99350.34;106942;1260;66435;-37
2023/10/13 02:27:03;;;;;;;15.30;9.10;;;;;;;14.66;91.71;99350.65;106883;1263;72698;-37
2023/10/13 02:29:38;;;;;;;15.30;7.70;;;;;;;14.70;91.60;99349.02;106760;1262;60435;-37
2023/10/13 02:32:13;;;;;;;13.60;8.20;;;;;;;14.76;91.27;99349.18;106894;1262;60035;-37
2023/10/13 02:34:43;;;;;;;13.40;9.90;;;;;;;14.76;91.20;99351.53;106912;1262;73045;-37
2023/10/13 02:37:12;;;;;;;14.60;8.60;;;;;;;14.72;91.27;99355.26;106921;1262;67678;-37
2023/10/13 02:39:41;;;;;;;15.00;9.30;;;;;;;14.73;91.11;99353.15;106852;1261;72722;-37
2023/10/13 02:42:15;;;;;;;11.50;9.20;;;;;;;14.73;91.06;99357.14;106886;1267;60553;-37
2023/10/13 02:44:46;;;;;;;12.00;8.40;;;;;;;14.72;91.30;99355.10;106898;1262;59466;-37
2023/10/13 02:47:14;;;;;;;13.80;9.10;;;;;;;14.69;91.51;99360.79;106889;1262;71931;-38
2023/10/13 02:49:43;;;;;;;14.90;8.10;;;;;;;14.66;91.76;99361.10;106881;1262;67631;-37
2023/10/13 02:52:12;;;;;;;11.40;8.30;;;;;;;14.69;91.69;99364.92;106868;1262;71835;-38
2023/10/13 02:54:46;;;;;;;12.90;8.30;;;;;;;14.72;91.58;99362.35;106931;1266;60499;-37
2023/10/13 02:57:17;;;;;;;15.20;8.80;;;;;;;14.72;91.73;99370.46;106910;1262;60091;-37
2023/10/13 02:59:48;;;;;;;10.70;8.30;;;;;;;14.70;92.03;99371.80;106872;1262;70782;-37
2023/10/13 03:02:29;;;;;;;14.10;7.60;;;;;;;14.72;91.91;99372.64;106875;1262;66647;-37
2023/10/13 03:05:00;;;;;;;15.80;7.60;;;;;;;14.77;91.76;99371.95;106860;1262;72723;-37
2023/10/13 03:07:28;;;;;;;12.70;8.00;;;;;;;14.80;91.67;99370.26;106857;1262;60061;-37
2023/10/13 03:10:00;;;;;;;12.80;8.60;;;;;;;14.78;91.69;99375.23;106909;1261;60028;-37
2023/10/13 03:12:33;;;;;;;11.50;8.20;;;;;;;14.75;91.87;99375.39;106870;1262;73081;-37
2023/10/13 03:18:02;;;;;;;13.30;8.60;;;;;;;14.82;91.41;99380.45;106730;1262;72676;-37
2023/10/13 03:20:33;;;;;;;13.90;8.50;;;;;;;14.82;91.43;99379.30;106920;1262;59624;-37
2023/10/13 03:23:01;;;;;;;13.10;8.70;;;;;;;14.80;91.64;99382.98;106883;1263;60064;-37
2023/10/13 03:25:36;;;;;;;12.20;7.70;;;;;;;14.79;91.46;99383.27;106860;1263;73128;-37
2023/10/13 03:28:05;;;;;;;15.20;8.40;;;;;;;14.83;91.15;99380.22;107120;1262;67928;-38
2023/10/13 03:30:38;;;;;;;12.20;7.80;;;;;;;14.87;91.06;99383.20;107184;1259;71417;-37
2023/10/13 03:33:07;;;;;;;16.10;8.80;;;;;;;14.85;91.01;99386.33;107245;1257;60507;-38
2023/10/13 03:35:39;;;;;;;12.70;7.70;;;;;;;14.82;91.18;99382.80;107150;1258;60028;-38
2023/10/13 03:38:16;;;;;;;10.50;7.30;;;;;;;14.88;91.08;99385.00;107129;1262;73640;-38
2023/10/13 03:43:51;;;;;;;10.30;8.40;;;;;;;14.99;90.68;99381.98;107149;1262;73168;-37
2023/10/13 03:46:21;;;;;;;12.10;8.90;;;;;;;14.97;90.39;99377.92;107192;1257;60942;-37
2023/10/13 03:48:54;;;;;;;12.20;7.90;;;;;;;14.94;90.18;99376.59;107104;1257;59561;-38
2023/10/13 03:51:30;;;;;;;13.10;8.30;;;;;;;14.96;90.02;99371.52;107215;1258;73141;-38
2023/10/13 03:53:58;;;;;;;14.30;7.80;;;;;;;15.01;89.88;99379.02;107118;1257;67564;-38
2023/10/13 03:56:28;;;;;;;13.10;8.80;;;;;;;15.05;89.81;99381.13;107114;1258;72670;-38
2023/10/13 03:59:06;;;;;;;13.60;7.70;;;;;;;15.05;89.53;99390.10;107117;1262;59616;-38
2023/10/13 04:04:11;;;;;;;14.20;8.10;;;;;;;15.08;88.88;99397.67;107090;1262;73053;-37
2023/10/13 04:17:27;;;;;;;12.60;8.80;;;;;;;15.04;88.57;99409.14;107059;1259;73043;-38
2023/10/13 04:36:55;;;;;;;13.70;8.10;;;;;;;14.99;89.16;99429.86;107060;1258;72695;-38
2023/10/13 04:39:00;;;;;;;13.30;8.40;;;;;;;15.04;89.10;99431.45;107037;1259;59597;-37
2023/10/13 04:41:36;;;;;;;13.10;9.40;;;;;;;15.04;88.94;99438.23;107106;1256;59805;-37
2023/10/13 04:44:05;;;;;;;11.90;8.30;;;;;;;15.00;88.85;99445.33;107106;1257;73109;-37
2023/10/13 04:46:39;;;;;;;13.40;8.10;;;;;;;15.02;88.65;99449.30;107133;1259;68316;-38
2023/10/13 04:49:10;;;;;;;13.10;8.60;;;;;;;15.04;88.51;99453.20;107238;1257;72777;-38
2023/10/13 04:51:58;;;;;;;13.90;8.40;;;;;;;15.03;88.63;99460.39;107124;1258;60081;-38
2023/10/13 04:54:33;;;;;;;11.00;7.80;;;;;;;15.00;88.55;99468.02;107077;1259;59622;-38
2023/10/13 05:47:12;;;;;;;12.90;9.10;;;;;;;15.32;86.43;99512.96;107085;1258;60130;-38
2023/10/13 05:49:50;;;;;;;11.80;8.40;;;;;;;15.31;86.40;99519.59;107059;1259;59646;-38
2023/10/13 06:28:42;;;;;;;12.90;8.10;;;;;;;15.83;85.49;99556.16;107220;1257;61022;-38
2023/10/13 06:31:25;;;;;;;13.60;8.50;;;;;;;15.87;84.96;99558.73;107050;1258;60527;-38
2023/10/13 06:33:55;;;;;;;14.20;9.00;;;;;;;15.87;84.58;99565.30;107061;1259;73834;-38
2023/10/13 06:36:23;;;;;;;;;;;;;;;15.81;84.41;99571.55;107098;1259;67566;-38
2023/10/13 06:39:25;;;;;;;15.30;8.70;;;;;;;15.77;84.35;99572.02;107083;1262;71842;-38
2023/10/13 06:41:45;;;;;;;14.20;8.40;;;;;;;15.79;84.48;99574.90;107241;1259;61656;-38
2023/10/13 06:44:16;;;;;;;14.30;9.10;;;;;;;15.82;84.32;99576.94;107071;1259;60346;-38
2023/10/13 06:46:44;;;;;;;15.30;9.60;;;;;;;15.81;84.37;99583.34;107080;1257;73856;-38
2023/10/13 06:49:13;;;;;;;14.30;9.10;;;;;;;15.79;84.55;99583.09;107256;1259;67591;-37
2023/10/13 06:51:41;;;;;;;14.80;9.00;;;;;;;15.83;84.22;99590.21;107031;1259;72647;-37
2023/10/13 06:54:21;;;;;;;12.70;8.90;;;;;;;15.78;83.52;99588.27;107196;1257;60404;-37
2023/10/13 06:56:52;;;;;;;15.20;9.70;;;;;;;15.68;83.79;99592.69;107092;1262;60364;-37
2023/10/13 06:59:26;;;;;;;12.10;9.00;;;;;;;15.59;84.33;99591.42;107114;1259;73840;-37
2023/10/13 07:01:54;;;;;;;15.60;9.00;;;;;;;15.56;84.63;99598.69;107157;1259;67607;-37
2023/10/13 07:04:22;;;;;;;14.30;8.30;;;;;;;15.58;84.83;99598.92;107197;1259;72741;-36
2023/10/13 07:06:50;;;;;;;15.40;8.30;;;;;;;15.60;84.80;99603.36;107186;1259;60302;-38
2023/10/13 07:12:16;;;;;;;11.20;8.80;;;;;;;15.58;85.05;99601.96;107070;1257;74174;-37
2023/10/13 07:14:51;;;;;;;;;;;;;;;15.62;84.92;99601.19;107117;1260;68049;-37
2023/10/13 07:17:25;;;;;;;12.00;8.40;;;;;;;15.70;84.79;99599.88;107067;1259;72702;-37
2023/10/13 07:19:55;;;;;;;12.40;8.50;;;;;;;15.75;85.12;99603.96;107233;1257;60413;-37
2023/10/13 07:22:23;;;;;;;14.60;9.20;;;;;;;15.79;85.13;99609.51;107136;1258;60416;-37
2023/10/13 07:24:52;;;;;;;12.80;8.20;;;;;;;15.83;84.90;99609.58;107099;1259;73840;-37
2023/10/13 07:27:24;;;;;;;12.00;8.00;;;;;;;15.91;84.38;99612.02;107084;1260;67629;-37
2023/10/13 07:30:13;;;;;;;11.30;7.40;;;;;;;16.00;84.15;99615.70;107110;1259;72712;-37
2023/10/13 07:32:47;;;;;;;10.10;5.90;;;;;;;16.05;82.38;99616.57;107059;1257;60317;-37
2023/10/13 07:35:20;;;;;;;11.50;6.10;;;;;;;16.03;80.12;99617.97;107086;1259;60317;-37
2023/10/13 07:37:54;;;;;;;8.90;5.90;;;;;;;15.97;79.07;99618.20;107065;1259;72694;-37
2023/10/13 07:40:39;;;;;;;13.20;5.80;;;;;;;15.91;78.50;99616.16;107076;1258;67599;-37
2023/10/13 07:43:10;;;;;;;12.00;6.00;;;;;;;15.94;78.20;99619.84;107164;1259;72707;-37
2023/10/13 07:45:40;;;;;;;8.90;6.20;;;;;;;15.93;77.63;99624.84;107091;1258;60150;-37
2023/10/13 07:48:12;;;;;;;;;;;;;;;15.85;76.99;99633.10;107130;1262;60429;-37
2023/10/13 07:50:40;;;;;;;12.80;7.20;;;;;;;15.73;76.94;99634.02;107044;1259;73802;-38
2023/10/13 07:53:23;;;;;;;9.80;6.20;;;;;;;15.62;77.31;99642.58;107250;1261;67945;-38
2023/10/13 07:55:55;;;;;;;8.60;5.90;;;;;;;15.60;77.68;99647.33;107076;1259;72708;-38
2023/10/13 08:06:26;;;;;;;9.90;5.40;;;;;;;15.50;77.97;99652.89;107139;1256;73014;-38
2023/10/13 08:08:38;;;;;;;12.30;5.70;;;;;;;15.54;77.59;99650.59;107213;1261;67591;-38
2023/10/13 08:13:54;;;;;;;8.70;5.80;;;;;;;15.61;77.26;99652.10;107253;1256;60384;-38
2023/10/13 08:16:57;;;;;;;9.80;6.00;;;;;;;15.63;77.07;99657.88;107284;1257;60405;-38
2023/10/13 08:27:49;;;;;;;7.00;4.10;;;;;;;16.05;73.67;99660.33;107326;1256;60507;-38
2023/10/13 08:30:26;;;;;;;7.00;4.00;;;;;;;16.08;73.08;99666.19;107326;1257;60418;-38
2023/10/13 08:32:54;;;;;;;7.80;4.40;;;;;;;16.09;72.28;99664.86;107316;1258;73868;-38
2023/10/13 08:35:33;;;;;;;6.50;3.60;;;;;;;16.08;71.92;99659.38;107298;1257;67884;-38
2023/10/13 08:38:28;;;;;;;6.50;4.20;;;;;;;16.14;71.59;99659.25;107228;1257;72780;-38
2023/10/13 08:43:52;;;;;;;8.90;4.50;;;;;;;16.29;72.08;99668.02;107322;1260;60496;-38
2023/10/13 08:46:30;;;;;;;7.80;5.00;;;;;;;16.33;72.20;99674.11;107293;1256;73892;-38
2023/10/13 08:49:39;;;;;;;11.00;5.10;;;;;;;16.41;72.42;99673.73;107253;1257;67558;-38
2023/10/13 08:52:05;;;;;;;7.40;4.30;;;;;;;16.52;70.96;99676.46;107194;1256;74795;-38
2023/10/13 08:54:45;;;;;;;;;;;;;;;16.69;69.95;99680.79;107163;1258;60490;-38
2023/10/13 08:57:19;;;;;;;7.40;3.90;;;;;;;16.82;68.67;99679.13;107269;1257;60469;-38
2023/10/13 08:59:54;;;;;;;6.40;3.70;;;;;;;16.89;67.78;99682.65;107271;1258;73831;-38
2023/10/13 09:02:59;;;;;;;7.30;3.10;;;;;;;16.94;66.24;99682.09;107300;1257;67569;-38
2023/10/13 09:05:41;;;;;;;7.10;4.20;;;;;;;16.93;65.63;99681.55;107267;1257;73160;-38
2023/10/13 09:08:08;;;;;;;5.40;3.10;;;;;;;16.92;65.78;99687.58;107259;1258;59587;-38
2023/10/13 09:11:05;;;;;;;6.20;3.00;;;;;;;16.92;64.41;99691.01;107240;1256;60032;-38
2023/10/13 09:13:43;;;;;;;8.70;3.50;;;;;;;16.85;63.81;99697.99;107279;1256;73849;-38
2023/10/13 09:17:34;;;;;;;5.20;3.00;;;;;;;16.83;63.43;99696.20;107274;1258;67577;-38
2023/10/13 09:19:15;;;;;;;9.80;2.70;;;;;;;16.87;63.17;99689.84;107201;1263;71128;-38
2023/10/13 09:24:31;;;;;;;7.00;2.80;;;;;;;17.08;61.89;99691.92;107237;1262;60279;-38
2023/10/13 09:27:01;;;;;;;4.90;2.50;;;;;;;17.18;61.40;99692.67;107251;1257;73799;-38
2023/10/13 09:29:29;;;;;;;7.80;2.90;;;;;;;17.24;60.99;99698.92;107292;1257;67627;-38
2023/10/13 09:32:02;;;;;;;6.30;2.80;;;;;;;17.21;60.24;99696.04;107254;1257;72667;-38
2023/10/13 09:34:33;;;;;;;5.50;2.90;;;;;;;17.13;60.05;99700.06;107308;1263;60408;-38
2023/10/13 09:37:03;;;;;;;6.80;2.90;;;;;;;17.07;60.01;99698.65;107277;1258;60157;-38
2023/10/13 09:39:44;;;;;;;7.90;3.20;;;;;;;17.04;60.15;99704.92;107286;1257;73869;-38
2023/10/13 09:42:13;;;;;;;5.50;3.20;;;;;;;17.06;60.04;99700.38;107126;1257;67922;-38
2023/10/13 09:44:51;;;;;;;8.70;3.10;;;;;;;17.07;59.36;99700.07;107286;1260;72511;-38
2023/10/13 09:47:30;;;;;;;5.90;2.80;;;;;;;17.10;59.45;99695.45;107138;1257;60428;-38
2023/10/13 09:50:05;;;;;;;4.50;2.90;;;;;;;17.15;59.41;99694.72;107300;1258;60402;-38
2023/10/13 09:52:33;;;;;;;5.60;3.20;;;;;;;17.26;59.37;99692.35;107231;1256;73896;-38
2023/10/13 09:55:18;;;;;;;6.50;3.10;;;;;;;17.36;58.87;99687.94;107298;1261;68008;-38
2023/10/13 09:57:57;;;;;;;7.30;3.00;;;;;;;17.38;58.41;99689.56;107140;1260;72677;-38
2023/10/13 10:01:20;;;;;;;6.90;3.80;;;;;;;17.38;58.59;99693.80;107235;1257;60601;-38
2023/10/13 10:06:04;;;;;;;6.80;3.30;;;;;;;17.45;58.72;99678.66;107105;1257;72651;-38
2023/10/13 10:08:34;;;;;;;5.40;3.60;;;;;;;17.53;58.92;99679.09;107360;1262;67559;-38
2023/10/13 10:11:11;;;;;;;7.10;3.30;;;;;;;17.65;58.50;99678.67;107295;1257;71889;-38
2023/10/13 10:14:00;;;;;;;7.50;3.50;;;;;;;17.77;57.62;99683.40;107296;1257;59754;-38
2023/10/13 10:16:46;;;;;;;5.80;3.20;;;;;;;17.91;58.20;99680.67;107172;1257;60235;-38
2023/10/13 10:19:14;;;;;;;7.40;3.40;;;;;;;18.08;57.03;99675.15;107202;1257;73844;-38
2023/10/13 10:21:43;;;;;;;7.30;3.70;;;;;;;18.25;56.75;99672.85;107323;1256;67780;-38
2023/10/13 10:24:24;;;;;;;7.00;3.70;;;;;;;18.40;56.02;99675.94;107263;1263;72692;-38
2023/10/13 10:26:53;;;;;;;5.40;3.50;;;;;;;18.52;55.66;99676.41;107260;1257;60316;-38
2023/10/13 10:29:21;;;;;;;7.80;3.70;;;;;;;18.56;54.63;99675.68;107337;1257;60190;-38
2023/10/13 10:31:49;;;;;;;5.60;3.40;;;;;;;18.59;54.76;99672.77;107283;1262;73084;-38
2023/10/13 10:34:18;;;;;;;4.50;3.40;;;;;;;18.61;54.06;99674.39;107314;1257;66591;-38
2023/10/13 10:36:48;;;;;;;7.40;3.40;;;;;;;18.59;54.19;99670.01;107301;1257;71686;-38
2023/10/13 10:39:17;;;;;;;7.10;3.50;;;;;;;18.50;54.21;99672.19;107357;1263;60100;-39
2023/10/13 10:41:51;;;;;;;6.30;3.70;;;;;;;18.35;54.01;99664.30;107078;1257;60488;-38
2023/10/13 10:44:34;;;;;;;10.10;4.00;;;;;;;18.11;54.39;99655.61;107228;1263;73913;-38
2023/10/13 10:47:19;;;;;;;7.40;3.80;;;;;;;18.01;55.42;99654.83;107290;1257;66652;-38
2023/10/13 10:49:47;;;;;;;7.30;3.40;;;;;;;17.98;55.22;99651.46;107310;1262;70495;-37
2023/10/13 10:52:18;;;;;;;6.00;3.80;;;;;;;17.97;54.73;99651.93;107260;1257;60396;-37
2023/10/13 10:54:51;;;;;;;6.90;3.40;;;;;;;18.01;54.32;99646.73;107311;1257;60342;-37
2023/10/13 10:57:19;;;;;;;5.20;3.30;;;;;;;18.16;54.49;99649.06;107297;1262;73988;-37
2023/10/13 10:59:52;;;;;;;5.50;3.40;;;;;;;18.31;53.65;99639.70;107350;1261;66272;-37
2023/10/13 11:02:27;;;;;;;4.50;2.70;;;;;;;18.41;52.67;99642.29;107279;1260;72693;-37
2023/10/13 11:04:56;;;;;;;7.90;3.50;;;;;;;18.53;51.97;99641.96;107084;1263;60527;-38
2023/10/13 11:07:24;;;;;;;5.90;3.40;;;;;;;18.67;50.15;99651.27;107253;1260;61061;-37
2023/10/13 11:10:07;;;;;;;5.40;2.80;;;;;;;18.79;50.31;99657.81;107340;1257;73159;-37
2023/10/13 11:12:35;;;;;;;4.00;2.60;;;;;;;18.89;46.18;99653.17;107225;1257;67643;-37
2023/10/13 11:15:22;;;;;;;4.80;2.60;;;;;;;18.93;46.13;99653.44;107298;1260;72797;-38
2023/10/13 11:17:58;;;;;;;4.80;2.60;;;;;;;19.02;46.95;99647.77;107261;1258;60393;-37
2023/10/13 11:20:33;;;;;;;4.80;2.80;;;;;;;19.21;47.10;99646.45;107287;1261;59751;-37
2023/10/13 11:23:04;;;;;;;5.30;2.50;;;;;;;19.38;45.84;99653.09;107293;1257;73855;-37
2023/10/13 11:25:35;;;;;;;5.30;2.80;;;;;;;19.47;45.08;99652.94;107272;1260;67951;-37
2023/10/13 11:28:28;;;;;;;4.80;2.90;;;;;;;19.56;44.74;99654.47;107278;1260;72671;-37
2023/10/13 11:30:58;;;;;;;3.30;2.80;;;;;;;19.74;46.19;99649.44;107251;1261;60418;-37
2023/10/13 11:33:29;;;;;;;5.00;2.60;;;;;;;19.95;46.87;99645.60;107279;1261;60121;-38
2023/10/13 11:35:57;;;;;;;5.00;2.70;;;;;;;20.17;46.64;99640.70;107275;1263;73856;-37
2023/10/13 11:38:28;;;;;;;4.70;3.00;;;;;;;20.46;45.69;99640.03;107361;1256;66751;-38
2023/10/13 11:48:43;;;;;;;3.40;2.60;;;;;;;21.44;43.17;99641.45;107270;1258;72877;-37
2023/10/13 11:51:23;;;;;;;6.30;3.20;;;;;;;21.57;42.35;99640.55;107336;1260;66329;-38
2023/10/13 11:53:51;;;;;;;4.80;2.80;;;;;;;21.56;41.98;99648.13;107274;1260;73193;-37
2023/10/13 11:56:20;;;;;;;6.10;3.00;;;;;;;21.46;41.73;99648.17;107300;1260;60154;-37
2023/10/13 11:58:48;;;;;;;5.80;2.70;;;;;;;21.32;41.94;99651.87;107300;1260;60663;-37
2023/10/13 12:11:46;;;;;;;6.10;3.10;;;;;;;22.10;39.97;99649.33;107272;1258;60427;-37
2023/10/13 12:15:08;;;;;;;5.00;2.70;;;;;;;22.45;40.01;99646.73;107331;1259;73925;-37
2023/10/13 12:17:10;;;;;;;5.00;2.60;;;;;;;23.03;39.22;99638.80;107220;1256;66463;-37
2023/10/13 12:19:39;;;;;;;5.90;2.50;;;;;;;23.64;38.60;99644.33;107265;1260;73025;-38
2023/10/13 12:22:08;;;;;;;5.00;2.70;;;;;;;24.13;37.35;99641.39;107238;1258;60316;-38
2023/10/13 12:27:18;;;;;;;3.60;2.30;;;;;;;24.66;34.72;99640.63;107258;1257;73068;-38
2023/10/13 12:29:47;;;;;;;5.70;2.70;;;;;;;24.69;35.73;99647.23;107217;1262;65855;-37
2023/10/13 12:32:20;;;;;;;4.20;2.50;;;;;;;24.91;35.57;99646.30;107234;1262;72648;-38
2023/10/13 12:35:27;;;;;;;4.00;2.30;;;;;;;25.02;34.77;99643.44;107314;1259;60391;-37
2023/10/13 12:48:59;;;;;;;3.60;2.30;;;;;;;25.61;33.62;99650.27;107246;1262;60533;-38
2023/10/13 12:56:56;;;;;;;3.10;2.10;;;;;;;26.43;31.50;99644.27;107093;1257;66399;-38
2023/10/13 12:59:27;;;;;;;3.70;2.30;;;;;;;26.38;31.49;99646.05;107304;1257;72789;-38
2023/10/13 13:01:55;;;;;;;4.00;2.40;;;;;;;26.42;31.66;99644.92;107265;1257;60638;-38
2023/10/13 13:04:31;;;;;;;4.20;2.30;;;;;;;26.61;31.38;99648.61;107307;1258;60232;-38
2023/10/13 13:06:59;;;;;;;5.60;2.60;;;;;;;26.68;31.07;99644.86;107284;1258;74010;-38
2023/10/13 13:09:27;;;;;;;4.30;2.40;;;;;;;26.55;31.33;99647.48;107287;1258;66837;-38
2023/10/13 13:11:57;;;;;;;3.60;2.40;;;;;;;26.40;31.54;99646.83;107650;1254;73750;-38
2023/10/13 13:14:29;;;;;;;4.50;2.10;;;;;;;26.29;31.94;99655.44;107642;1254;60261;-38
2023/10/13 13:17:04;;;;;;;4.30;2.40;;;;;;;26.35;31.79;99656.89;107518;1254;60286;-38
2023/10/13 13:19:38;;;;;;;4.00;2.20;;;;;;;26.43;31.66;99654.89;107516;1254;73708;-38
2023/10/13 13:22:17;;;;;;;4.20;2.30;;;;;;;26.48;31.04;99660.75;107565;1254;67888;-38
2023/10/13 13:24:46;;;;;;;5.10;2.60;;;;;;;26.44;31.46;99658.81;107492;1257;72755;-38
2023/10/13 13:27:15;;;;;;;4.30;2.10;;;;;;;26.18;31.12;99660.02;107494;1254;60539;-38
2023/10/13 13:29:45;;;;;;;3.40;1.90;;;;;;;25.65;31.70;99662.65;107510;1254;60639;-38
2023/10/13 13:32:23;;;;;;;5.00;2.20;;;;;;;25.15;32.35;99660.59;107532;1254;73931;-38
2023/10/13 13:35:03;;;;;;;4.60;2.40;;;;;;;24.65;32.75;99656.89;107607;1254;68103;-38
2023/10/13 13:37:31;;;;;;;6.60;2.40;;;;;;;24.19;33.29;99652.21;107472;1254;71849;-38
2023/10/13 13:40:13;;;;;;;4.80;2.00;;;;;;;24.02;33.37;99651.40;107496;1257;60427;-38
2023/10/13 13:42:45;;;;;;;3.10;2.00;;;;;;;24.08;32.87;99650.90;107508;1254;59588;-38
2023/10/13 13:45:27;;;;;;;5.00;2.30;;;;;;;24.30;32.05;99651.34;107490;1254;73113;-38
2023/10/13 13:47:55;;;;;;;3.40;2.00;;;;;;;24.53;32.12;99648.74;107633;1254;66309;-38
2023/10/13 13:50:38;;;;;;;3.60;2.00;;;;;;;24.91;31.24;99650.21;107487;1257;72671;-38
2023/10/13 13:53:09;;;;;;;6.20;2.10;;;;;;;25.39;31.03;99652.16;107592;1256;62132;-38
2023/10/13 13:55:39;;;;;;;4.30;2.10;;;;;;;25.76;30.08;99647.69;107505;1254;60419;-38
2023/10/13 13:58:12;;;;;;;2.80;2.00;;;;;;;25.95;29.60;99646.81;107453;1254;73838;-38
2023/10/13 14:00:48;;;;;;;5.00;2.00;;;;;;;26.05;29.13;99649.03;107534;1254;67781;-38
2023/10/13 14:03:31;;;;;;;3.00;1.90;;;;;;;25.99;28.89;99654.98;107313;1254;261323;-38
2023/10/13 14:06:52;;;;;;;3.10;1.90;;;;;;;25.60;29.52;99657.02;104103;1292;600351;-37
2023/10/13 14:09:32;;;;;;;4.60;2.30;;;;;;;25.31;29.83;99659.11;106577;1266;59313;-37
2023/10/13 14:14:55;;;;;;;4.40;2.10;;;;;;;24.77;30.55;99667.76;106623;1267;72266;-38
2023/10/13 14:17:28;;;;;;;4.50;2.10;;;;;;;24.76;31.07;99669.30;106619;1266;68003;-38
2023/10/13 14:19:57;;;;;;;2.70;1.70;;;;;;;25.01;31.42;99672.57;106438;1264;354373;-39
2023/10/13 14:22:25;;;;;;;2.90;2.00;;;;;;;25.42;31.08;99671.95;106744;1266;60133;-38
2023/10/13 14:24:55;;;;;;;3.30;1.80;;;;;;;25.70;30.38;99671.59;106708;1269;59109;-39
2023/10/13 14:27:24;;;;;;;3.10;1.80;;;;;;;25.88;30.62;99671.20;106806;1264;72249;-38
2023/10/13 14:29:56;;;;;;;5.20;1.90;;;;;;;26.17;30.15;99669.84;106828;1264;67649;-38
2023/10/13 14:32:27;;;;;;;3.30;1.90;;;;;;;26.47;29.70;99668.32;106810;1264;72719;-38
2023/10/13 14:34:56;;;;;;;5.20;2.10;;;;;;;26.69;29.43;99670.10;106794;1264;59493;-38
2023/10/13 14:37:29;;;;;;;3.70;2.10;;;;;;;26.94;29.60;99667.01;106674;1264;60057;-38
2023/10/13 14:39:58;;;;;;;4.50;2.20;;;;;;;27.23;29.16;99672.86;106802;1268;73032;-38
2023/10/13 14:42:26;;;;;;;6.30;2.10;;;;;;;27.41;28.86;99672.07;106805;1264;67572;-38
2023/10/13 14:44:56;;;;;;;4.20;2.10;;;;;;;27.47;28.89;99672.17;106807;1264;71438;-39
2023/10/13 14:47:24;;;;;;;4.70;2.50;;;;;;;27.44;28.67;99670.27;106608;1266;60178;-38
2023/10/13 14:49:59;;;;;;;4.40;2.20;;;;;;;27.42;28.78;99668.19;106660;1264;60389;-39
2023/10/13 14:52:31;;;;;;;3.40;2.00;;;;;;;27.32;28.84;99668.89;106579;1266;73506;-39
2023/10/13 14:55:00;;;;;;;3.40;1.70;;;;;;;27.00;29.52;99660.68;106732;1267;67633;-39
2023/10/13 14:57:28;;;;;;;5.10;2.20;;;;;;;26.42;30.02;99666.91;106705;1267;72674;-38
2023/10/13 14:59:57;;;;;;;6.90;2.10;;;;;;;25.77;30.80;99672.00;106704;1267;60095;-38
2023/10/13 15:02:25;;;;;;;4.30;2.30;;;;;;;25.15;32.01;99671.56;106727;1266;59314;-38
2023/10/13 15:04:53;;;;;;;3.00;1.80;;;;;;;24.50;33.20;99670.05;106732;1266;73088;-38